createdAt,value
2018-10-19T00:02:27.590Z,21.40
2018-10-19T00:04:57.260Z,22.47
2018-10-19T00:07:26.899Z,23.37
2018-10-19T00:09:56.622Z,22.70
2018-10-19T00:12:26.348Z,23.77
2018-10-19T00:14:55.937Z,22.83
2018-10-19T00:17:26.809Z,23.47
2018-10-19T00:19:56.418Z,24.20
2018-10-19T00:22:26.138Z,22.97
2018-10-19T00:24:55.775Z,23.83
2018-10-19T00:27:25.523Z,20.57
2018-10-19T00:29:55.167Z,21.37
2018-10-19T00:32:24.773Z,22.43
2018-10-19T00:34:54.500Z,22.27
2018-10-19T00:37:24.089Z,22.50
2018-10-19T00:39:53.666Z,20.83
2018-10-19T00:42:23.300Z,24.57
2018-10-19T00:44:52.958Z,22.40
2018-10-19T00:47:22.547Z,21.97
2018-10-19T00:49:52.258Z,23.17
2018-10-19T00:52:23.020Z,22.83
2018-10-19T00:55:11.248Z,24.90
2018-10-19T00:57:40.874Z,24.50
2018-10-19T01:00:10.571Z,23.53
2018-10-19T01:02:40.324Z,23.63
2018-10-19T01:05:10.045Z,22.17
2018-10-19T01:07:39.700Z,23.93
2018-10-19T01:10:09.413Z,24.43
2018-10-19T01:12:39.090Z,24.70
2018-10-19T01:15:08.755Z,26.50
2018-10-19T01:17:38.447Z,24.53
2018-10-19T01:20:08.318Z,25.63
2018-10-19T01:22:38.307Z,23.30
2018-10-19T01:25:19.803Z,24.17
2018-10-19T01:27:49.618Z,24.77
2018-10-19T01:30:19.279Z,23.57
2018-10-19T01:32:49.008Z,22.93
2018-10-19T01:35:18.810Z,25.30
2018-10-19T01:37:48.507Z,24.67
2018-10-19T01:43:18.783Z,23.63
2018-10-19T01:45:53.847Z,23.60
2018-10-19T01:48:23.545Z,24.17
2018-10-19T01:50:53.254Z,26.90
2018-10-19T01:53:22.949Z,27.37
2018-10-19T01:55:52.594Z,28.20
2018-10-19T01:58:22.280Z,31.87
2018-10-19T02:00:52.143Z,30.43
2018-10-19T02:03:21.815Z,25.40
2018-10-19T02:05:51.422Z,25.33
2018-10-19T02:08:21.197Z,26.30
2018-10-19T02:10:50.919Z,24.70
2018-10-19T02:13:20.511Z,27.70
2018-10-19T02:15:50.202Z,27.37
2018-10-19T02:18:19.853Z,28.03
2018-10-19T02:20:49.454Z,29.13
2018-10-19T02:23:19.191Z,31.10
2018-10-19T02:25:49.796Z,32.43
2018-10-19T02:28:19.483Z,34.80
2018-10-19T02:30:49.091Z,35.97
2018-10-19T02:33:18.840Z,37.20
2018-10-19T02:35:48.370Z,35.50
2018-10-19T02:38:17.991Z,39.40
2018-10-19T02:40:47.595Z,37.00
2018-10-19T02:43:17.338Z,31.83
2018-10-19T02:45:46.954Z,28.77
2018-10-19T02:48:16.607Z,29.00
2018-10-19T02:50:46.271Z,30.27
2018-10-19T02:53:15.987Z,29.43
2018-10-19T02:55:45.518Z,27.80
2018-10-19T02:58:15.157Z,27.03
2018-10-19T03:00:44.921Z,27.37
2018-10-19T03:03:14.536Z,26.63
2018-10-19T03:05:44.195Z,27.13
2018-10-19T03:08:13.845Z,29.00
2018-10-19T03:10:43.415Z,27.77
2018-10-19T03:13:13.154Z,27.37
2018-10-19T03:15:42.745Z,27.30
2018-10-19T03:18:12.414Z,26.13
2018-10-19T03:20:42.259Z,26.33
2018-10-19T03:23:12.012Z,27.47
2018-10-19T03:25:41.518Z,27.67
2018-10-19T03:28:11.210Z,27.23
2018-10-19T03:30:40.869Z,29.87
2018-10-19T03:33:10.562Z,28.90
2018-10-19T03:35:40.106Z,28.10
2018-10-19T03:38:09.749Z,30.23
2018-10-19T03:40:39.423Z,30.10
2018-10-19T03:43:09.047Z,30.27
2018-10-19T03:45:38.680Z,31.30
2018-10-19T03:48:08.378Z,31.60
2018-10-19T03:50:38.085Z,33.27
2018-10-19T03:53:07.821Z,31.43
2018-10-19T03:55:37.360Z,32.40
2018-10-19T03:58:07.241Z,35.23
2018-10-19T04:00:37.058Z,34.07
2018-10-19T04:03:07.152Z,34.40
2018-10-19T04:05:36.711Z,35.60
2018-10-19T04:08:06.609Z,34.70
2018-10-19T04:10:40.699Z,36.03
2018-10-19T04:13:10.360Z,33.57
2018-10-19T04:15:39.972Z,34.23
2018-10-19T04:18:09.664Z,33.83
2018-10-19T04:20:39.309Z,34.20
2018-10-19T04:23:34.765Z,37.90
2018-10-19T04:26:04.352Z,34.27
2018-10-19T04:28:34.071Z,37.80
2018-10-19T04:31:03.678Z,36.73
2018-10-19T04:33:33.342Z,36.20
2018-10-19T04:36:10.490Z,35.50
2018-10-19T04:38:40.171Z,34.87
2018-10-19T04:41:09.800Z,34.90
2018-10-19T04:43:40.523Z,35.43
2018-10-19T04:46:10.320Z,33.60
2018-10-19T04:48:40.019Z,34.33
2018-10-19T04:51:09.781Z,39.73
2018-10-19T04:53:39.528Z,36.23
2018-10-19T04:56:09.312Z,36.50
2018-10-19T04:58:39.151Z,34.20
2018-10-19T05:01:09.184Z,33.83
2018-10-19T05:03:39.189Z,33.73
2018-10-19T05:09:13.447Z,34.20
2018-10-19T05:11:43.171Z,36.90
2018-10-19T05:14:12.815Z,38.93
2018-10-19T05:16:42.490Z,37.53
2018-10-19T05:19:12.161Z,37.03
2018-10-19T05:21:41.835Z,35.70
2018-10-19T05:24:11.466Z,35.10
2018-10-19T05:26:41.101Z,34.20
2018-10-19T05:29:10.903Z,36.33
2018-10-19T05:31:40.522Z,34.47
2018-10-19T05:34:10.201Z,34.97
2018-10-19T05:36:56.128Z,33.17
2018-10-19T05:39:25.724Z,34.37
2018-10-19T05:41:55.323Z,34.50
2018-10-19T05:44:25.206Z,32.80
2018-10-19T05:46:54.865Z,34.93
2018-10-19T05:49:24.518Z,34.30
2018-10-19T05:51:54.234Z,34.47
2018-10-19T05:54:24.083Z,37.33
2018-10-19T05:56:53.729Z,37.27
2018-10-19T05:59:23.605Z,37.57
2018-10-19T06:01:53.205Z,33.03
2018-10-19T06:07:23.818Z,33.30
2018-10-19T06:09:53.501Z,32.60
2018-10-19T06:12:23.227Z,33.30
2018-10-19T06:14:52.839Z,33.10
2018-10-19T06:17:22.563Z,29.97
2018-10-19T06:19:55.664Z,32.97
2018-10-19T06:22:25.301Z,30.97
2018-10-19T06:24:55.022Z,34.00
2018-10-19T06:27:24.678Z,35.03
2018-10-19T06:29:54.572Z,37.40
2018-10-19T06:32:24.246Z,34.63
2018-10-19T06:34:54.045Z,35.07
2018-10-19T06:37:23.745Z,32.93
2018-10-19T06:39:53.444Z,35.30
2018-10-19T06:42:23.090Z,35.03
2018-10-19T06:44:52.670Z,35.10
2018-10-19T06:47:22.549Z,34.40
2018-10-19T06:49:52.059Z,31.07
2018-10-19T06:52:21.702Z,32.53
2018-10-19T06:54:51.366Z,32.87
2018-10-19T06:57:21.023Z,32.37
2018-10-19T06:59:50.655Z,34.30
2018-10-19T07:02:20.278Z,36.50
2018-10-19T07:04:49.835Z,35.70
2018-10-19T07:07:19.490Z,34.80
2018-10-19T07:09:49.227Z,33.60
2018-10-19T07:12:18.854Z,35.17
2018-10-19T07:14:48.523Z,34.47
2018-10-19T07:17:18.182Z,35.47
2018-10-19T07:19:47.855Z,33.50
2018-10-19T07:22:17.487Z,34.83
2018-10-19T07:24:47.441Z,33.53
2018-10-19T07:27:17.175Z,32.00
2018-10-19T07:29:46.875Z,32.17
2018-10-19T07:32:18.107Z,32.80
2018-10-19T07:34:47.715Z,31.27
2018-10-19T07:37:17.302Z,33.77
2018-10-19T07:39:47.031Z,32.97
2018-10-19T07:42:16.778Z,33.57
2018-10-19T07:44:46.643Z,34.90
2018-10-19T07:47:16.632Z,35.97
2018-10-19T07:49:46.256Z,34.13
2018-10-19T07:52:15.935Z,35.57
2018-10-19T07:54:45.793Z,35.07
2018-10-19T07:57:15.503Z,33.90
2018-10-19T07:59:45.224Z,36.13
2018-10-19T08:02:14.960Z,35.20
2018-10-19T08:04:52.077Z,36.17
2018-10-19T08:07:21.823Z,36.97
2018-10-19T08:09:51.570Z,35.43
2018-10-19T08:12:21.318Z,36.30
2018-10-19T08:14:51.007Z,37.40
2018-10-19T08:17:20.683Z,37.13
2018-10-19T08:19:50.329Z,36.80
2018-10-19T08:22:19.975Z,41.07
2018-10-19T08:24:51.258Z,37.40
2018-10-19T08:27:21.077Z,40.80
2018-10-19T08:29:50.814Z,39.70
2018-10-19T08:32:20.475Z,37.97
2018-10-19T08:34:50.160Z,36.13
2018-10-19T08:37:19.857Z,38.17
2018-10-19T08:39:49.499Z,39.40
2018-10-19T08:42:19.286Z,39.83
2018-10-19T08:44:49.067Z,41.47
2018-10-19T08:47:18.790Z,40.40
2018-10-19T08:49:48.554Z,42.00
2018-10-19T08:52:18.170Z,39.57
2018-10-19T08:54:47.869Z,40.17
2018-10-19T08:57:17.519Z,39.63
2018-10-19T08:59:47.150Z,36.90
2018-10-19T09:02:16.898Z,37.70
2018-10-19T09:04:58.303Z,38.70
2018-10-19T09:07:27.986Z,37.47
2018-10-19T09:09:57.563Z,36.97
2018-10-19T09:12:27.217Z,40.03
2018-10-19T09:14:59.085Z,40.63
2018-10-19T09:17:28.727Z,38.50
2018-10-19T09:19:58.379Z,39.50
2018-10-19T09:22:28.062Z,39.47
2018-10-19T09:24:57.762Z,41.60
2018-10-19T09:27:27.414Z,40.20
2018-10-19T09:29:57.071Z,39.70
2018-10-19T09:32:26.714Z,40.93
2018-10-19T09:34:56.365Z,39.93
2018-10-19T09:37:25.987Z,39.30
2018-10-19T09:39:55.703Z,40.50
2018-10-19T09:42:25.367Z,42.67
2018-10-19T09:44:55.084Z,39.93
2018-10-19T09:47:24.851Z,39.60
2018-10-19T09:49:54.505Z,38.00
2018-10-19T09:52:24.707Z,40.67
2018-10-19T09:54:54.402Z,37.53
2018-10-19T09:57:29.613Z,41.70
2018-10-19T10:00:00.243Z,42.57
2018-10-19T10:02:29.876Z,41.13
2018-10-19T10:04:59.572Z,43.23
2018-10-19T10:07:29.255Z,41.53
2018-10-19T10:09:58.995Z,40.40
2018-10-19T10:12:28.913Z,42.70
2018-10-19T10:14:59.952Z,40.90
2018-10-19T10:17:29.576Z,42.50
2018-10-19T10:19:59.415Z,42.60
2018-10-19T10:22:29.413Z,43.97
2018-10-19T10:24:59.206Z,42.67
2018-10-19T10:27:28.821Z,43.97
2018-10-19T10:29:59.989Z,42.73
2018-10-19T10:32:54.492Z,44.87
2018-10-19T10:35:24.164Z,43.93
2018-10-19T10:37:54.110Z,44.70
2018-10-19T10:40:23.775Z,44.50
2018-10-19T10:42:55.672Z,45.93
2018-10-19T10:45:25.361Z,41.43
2018-10-19T10:47:55.037Z,44.50
2018-10-19T10:50:24.792Z,42.40
2018-10-19T10:52:54.829Z,44.90
2018-10-19T10:55:24.511Z,41.43
2018-10-19T10:57:54.178Z,44.40
2018-10-19T11:00:24.436Z,46.03
2018-10-19T11:02:54.687Z,43.90
2018-10-19T11:05:24.379Z,47.03
2018-10-19T11:07:53.992Z,43.10
2018-10-19T11:10:46.441Z,44.73
2018-10-19T11:13:16.157Z,42.93
2018-10-19T11:15:45.802Z,43.27
2018-10-19T11:18:15.710Z,42.83
2018-10-19T11:20:45.631Z,40.40
2018-10-19T11:23:37.489Z,41.10
2018-10-19T11:26:07.316Z,38.67
2018-10-19T11:28:36.934Z,41.03
2018-10-19T11:31:07.018Z,41.83
2018-10-19T11:33:40.204Z,42.27
2018-10-19T11:36:10.093Z,40.70
2018-10-19T11:38:39.718Z,40.97
2018-10-19T11:41:10.050Z,41.17
2018-10-19T11:43:51.137Z,41.50
2018-10-19T11:46:21.788Z,39.83
2018-10-19T11:49:06.127Z,42.53
2018-10-19T11:51:35.772Z,39.63
2018-10-19T11:54:05.757Z,42.13
2018-10-19T11:56:35.475Z,40.70
2018-10-19T11:59:05.685Z,41.77
2018-10-19T12:01:35.342Z,42.10
2018-10-19T12:04:06.230Z,41.07
2018-10-19T12:06:35.807Z,40.70
2018-10-19T12:09:08.094Z,39.50
2018-10-19T12:14:59.484Z,39.80
2018-10-19T12:17:29.203Z,42.20
2018-10-19T12:20:22.593Z,40.00
2018-10-19T12:22:52.304Z,38.90
2018-10-19T12:25:22.029Z,40.80
2018-10-19T12:27:51.661Z,42.17
2018-10-19T12:30:21.468Z,38.80
2018-10-19T12:32:51.226Z,42.77
2018-10-19T12:35:21.088Z,41.07
2018-10-19T12:37:50.685Z,40.13
2018-10-19T12:40:20.444Z,41.77
2018-10-19T12:42:50.166Z,41.97
2018-10-19T12:46:39.363Z,41.13
2018-10-19T12:49:09.686Z,41.47
2018-10-19T12:51:39.532Z,41.80
2018-10-19T12:54:14.663Z,40.50
2018-10-19T12:56:44.314Z,41.23
2018-10-19T12:59:13.986Z,42.50
2018-10-19T13:01:43.666Z,41.40
2018-10-19T13:04:13.375Z,43.27
2018-10-19T13:06:43.030Z,40.30
2018-10-19T13:09:13.979Z,41.88
2018-10-19T13:11:43.579Z,41.70
2018-10-19T13:14:13.320Z,40.03
2018-10-19T13:16:42.984Z,43.87
2018-10-19T13:19:12.646Z,42.43
2018-10-19T13:21:42.240Z,41.90
2018-10-19T13:24:12.948Z,40.73
2018-10-19T13:26:42.391Z,42.97
2018-10-19T13:29:11.986Z,41.20
2018-10-19T13:31:41.727Z,40.17
2018-10-19T13:34:17.468Z,42.03
2018-10-19T13:36:47.162Z,40.50
2018-10-19T13:39:16.887Z,41.00
2018-10-19T13:41:46.479Z,40.10
2018-10-19T13:44:25.998Z,40.63
2018-10-19T13:46:55.562Z,39.50
2018-10-19T13:49:25.148Z,38.63
2018-10-19T13:51:54.759Z,38.13
2018-10-19T13:54:24.337Z,40.00
2018-10-19T13:56:53.860Z,40.47
2018-10-19T13:59:23.430Z,40.03
2018-10-19T14:02:00.289Z,39.27
2018-10-19T14:04:30.071Z,40.13
2018-10-19T14:06:59.791Z,37.70
2018-10-19T14:09:29.583Z,40.27
2018-10-19T14:12:04.369Z,41.27
2018-10-19T14:14:34.022Z,42.13
2018-10-19T14:17:05.223Z,39.50
2018-10-19T14:19:35.167Z,39.37
2018-10-19T14:22:04.987Z,42.43
2018-10-19T14:24:34.794Z,41.70
2018-10-19T14:27:05.622Z,40.90
2018-10-19T14:29:35.269Z,39.57
2018-10-19T14:32:05.267Z,40.63
2018-10-19T14:34:34.997Z,41.43
2018-10-19T14:37:05.194Z,40.63
2018-10-19T14:39:47.342Z,41.37
2018-10-19T14:42:43.726Z,40.40
2018-10-19T14:45:15.235Z,42.97
2018-10-19T14:47:55.581Z,42.63
2018-10-19T14:50:26.340Z,40.80
2018-10-19T14:52:56.312Z,42.50
2018-10-19T14:55:25.926Z,42.70
2018-10-19T14:57:55.709Z,43.80
2018-10-19T15:00:25.641Z,41.47
2018-10-19T15:02:55.532Z,40.80
2018-10-19T15:05:26.323Z,42.33
2018-10-19T15:07:56.131Z,41.90
2018-10-19T15:10:26.006Z,41.57
2018-10-19T15:12:55.760Z,42.30
2018-10-19T15:15:25.467Z,41.53
2018-10-19T15:17:59.942Z,41.73
2018-10-19T15:20:33.749Z,40.17
2018-10-19T15:23:14.804Z,40.30
2018-10-19T15:25:50.623Z,39.47
2018-10-19T15:31:25.414Z,41.37
2018-10-19T15:33:55.074Z,38.67
2018-10-19T15:36:26.619Z,40.13
2018-10-19T15:38:58.903Z,36.13
2018-10-19T15:41:59.596Z,40.27
2018-10-19T15:44:34.187Z,42.40
2018-10-19T15:50:04.038Z,41.17
2018-10-19T15:52:33.688Z,39.63
2018-10-19T15:55:10.448Z,39.60
2018-10-19T15:57:40.534Z,36.57
2018-10-19T16:00:11.541Z,40.00
2018-10-19T16:02:45.288Z,39.57
2018-10-19T16:05:14.978Z,39.40
2018-10-19T16:11:10.369Z,40.57
2018-10-19T16:13:39.749Z,41.57
2018-10-19T16:16:09.366Z,41.83
2018-10-19T16:18:45.825Z,43.50
2018-10-19T16:21:17.339Z,40.30
2018-10-19T16:23:46.693Z,40.33
2018-10-19T16:26:16.137Z,40.10
2018-10-19T16:28:45.474Z,42.50
2018-10-19T16:31:14.818Z,41.13
2018-10-19T16:33:54.628Z,42.77
2018-10-19T16:36:24.011Z,43.50
2018-10-19T16:39:07.609Z,43.20
2018-10-19T16:42:01.725Z,41.23
2018-10-19T16:44:31.017Z,44.47
2018-10-19T16:47:00.537Z,43.47
2018-10-19T16:49:37.426Z,43.47
2018-10-19T16:52:07.130Z,44.07
2018-10-19T16:54:36.361Z,42.70
2018-10-19T16:57:20.349Z,44.33
2018-10-19T16:59:49.670Z,50.00
2018-10-19T17:02:18.991Z,48.20
2018-10-19T17:04:48.396Z,44.37
2018-10-19T17:07:17.678Z,43.37
2018-10-19T17:09:46.999Z,45.10
2018-10-19T17:12:23.352Z,43.73
2018-10-19T17:14:52.736Z,42.53
2018-10-19T17:17:23.570Z,44.93
2018-10-19T17:19:52.912Z,48.47
2018-10-19T17:22:22.251Z,48.20
2018-10-19T17:24:51.581Z,43.87
2018-10-19T17:27:20.937Z,48.87
2018-10-19T17:29:50.253Z,45.67
2018-10-19T17:32:19.561Z,62.50
2018-10-19T17:35:15.892Z,98.77
2018-10-19T17:37:51.666Z,60.53
2018-10-19T17:40:21.006Z,70.97
2018-10-19T17:45:59.047Z,45.70
2018-10-19T17:48:45.234Z,43.67
2018-10-19T17:51:14.607Z,42.63
2018-10-19T17:53:43.905Z,42.47
2018-10-19T17:56:13.221Z,41.87
2018-10-19T17:58:42.574Z,41.77
2018-10-19T18:01:17.534Z,39.43
2018-10-19T18:03:46.870Z,42.47
2018-10-19T18:06:16.309Z,42.30
2018-10-19T18:08:45.575Z,69.37
2018-10-19T18:11:15.094Z,47.60
2018-10-19T18:13:44.378Z,46.10
2018-10-19T18:16:13.776Z,43.30
2018-10-19T18:18:43.059Z,46.57
2018-10-19T18:21:18.311Z,45.40
2018-10-19T18:23:47.686Z,42.20
2018-10-19T18:26:37.783Z,41.20
2018-10-19T18:29:07.337Z,42.90
2018-10-19T18:31:36.714Z,42.77
2018-10-19T18:34:06.055Z,42.03
2018-10-19T18:36:35.378Z,41.30
2018-10-19T18:39:06.581Z,41.73
2018-10-19T18:41:46.362Z,41.93
2018-10-19T18:44:15.749Z,40.87
2018-10-19T18:46:45.025Z,43.27
2018-10-19T18:49:14.369Z,40.60
2018-10-19T18:51:43.694Z,38.70
2018-10-19T18:54:13.027Z,40.17
2018-10-19T18:56:42.366Z,40.90
2018-10-19T18:59:11.808Z,39.77
2018-10-19T19:01:41.086Z,41.37
2018-10-19T19:04:10.430Z,42.03
2018-10-19T19:06:39.763Z,44.53
2018-10-19T19:09:12.953Z,47.63
2018-10-19T19:11:42.422Z,43.23
2018-10-19T19:14:12.527Z,45.57
2018-10-19T19:16:41.861Z,45.80
2018-10-19T19:19:11.158Z,49.27
2018-10-19T19:21:40.606Z,45.10
2018-10-19T19:24:15.214Z,42.47
2018-10-19T19:26:44.522Z,42.37
2018-10-19T19:29:13.904Z,41.00
2018-10-19T19:31:43.202Z,46.13
2018-10-19T19:34:17.691Z,46.33
2018-10-19T19:36:47.161Z,47.20
2018-10-19T19:39:16.485Z,49.67
2018-10-19T19:41:51.186Z,47.63
2018-10-19T19:44:20.501Z,48.07
2018-10-19T19:46:49.810Z,47.17
2018-10-19T19:49:24.522Z,46.30
2018-10-19T19:51:53.834Z,44.07
2018-10-19T19:54:33.237Z,47.87
2018-10-19T19:57:02.551Z,45.63
2018-10-19T19:59:31.897Z,45.73
2018-10-19T20:02:01.302Z,48.73
2018-10-19T20:04:30.582Z,48.33
2018-10-19T20:06:59.905Z,49.67
2018-10-19T20:09:29.250Z,48.23
2018-10-19T20:11:58.562Z,51.30
2018-10-19T20:14:27.894Z,51.07
2018-10-19T20:16:57.389Z,50.33
2018-10-19T20:19:26.687Z,49.10
2018-10-19T20:21:56.248Z,46.33
2018-10-19T20:24:25.601Z,48.23
2018-10-19T20:26:54.908Z,45.00
2018-10-19T20:29:24.220Z,52.33
2018-10-19T20:31:53.580Z,52.30
2018-10-19T20:34:22.898Z,47.97
2018-10-19T20:36:52.205Z,47.80
2018-10-19T20:39:21.542Z,48.93
2018-10-19T20:41:50.855Z,46.83
2018-10-19T20:44:20.154Z,46.23
2018-10-19T20:46:49.476Z,52.90
2018-10-19T20:49:18.789Z,48.77
2018-10-19T20:51:48.086Z,48.30
2018-10-19T20:54:17.398Z,48.33
2018-10-19T20:56:46.701Z,46.17
2018-10-19T20:59:16.087Z,46.60
2018-10-19T21:01:45.390Z,47.83
2018-10-19T21:04:14.697Z,47.80
2018-10-19T21:06:44.006Z,51.50
2018-10-19T21:09:13.334Z,52.40
2018-10-19T21:11:42.653Z,49.17
2018-10-19T21:14:12.196Z,47.87
2018-10-19T21:16:41.301Z,47.90
2018-10-19T21:19:10.734Z,47.57
2018-10-19T21:21:40.037Z,48.67
2018-10-19T21:24:09.379Z,48.63
2018-10-19T21:26:38.973Z,44.70
2018-10-19T21:29:08.381Z,47.70
2018-10-19T21:31:37.644Z,44.17
2018-10-19T21:34:06.960Z,46.83
2018-10-19T21:36:36.262Z,49.13
2018-10-19T21:39:08.356Z,50.27
2018-10-19T21:41:38.046Z,50.90
2018-10-19T21:44:07.435Z,48.23
2018-10-19T21:46:36.738Z,49.37
2018-10-19T21:49:06.418Z,49.00
2018-10-19T21:51:35.780Z,48.83
2018-10-19T21:54:05.668Z,44.57
2018-10-19T21:56:34.973Z,48.13
2018-10-19T21:59:04.321Z,50.37
2018-10-19T22:01:33.650Z,51.20
2018-10-19T22:04:02.946Z,49.50
2018-10-19T22:06:58.219Z,48.87
2018-10-19T22:09:41.567Z,50.87
2018-10-19T22:12:10.901Z,52.07
2018-10-19T22:14:40.223Z,49.17
2018-10-19T22:17:09.654Z,53.00
2018-10-19T22:19:38.890Z,52.93
2018-10-19T22:22:08.208Z,50.73
2018-10-19T22:24:37.565Z,49.87
2018-10-19T22:27:06.937Z,51.63
2018-10-19T22:29:36.221Z,53.10
2018-10-19T22:32:05.763Z,52.93
2018-10-19T22:34:35.086Z,54.30
2018-10-19T22:37:04.933Z,47.83
2018-10-19T22:39:34.230Z,48.53
2018-10-19T22:42:03.554Z,45.33
2018-10-19T22:44:33.130Z,47.43
2018-10-19T22:47:18.689Z,49.37
2018-10-19T22:49:47.990Z,50.63
2018-10-19T22:52:17.313Z,52.17
2018-10-19T22:54:46.642Z,52.97
2018-10-19T22:57:16.238Z,52.67
2018-10-19T22:59:45.548Z,54.73
2018-10-19T23:02:14.961Z,50.77
2018-10-19T23:04:44.270Z,50.07
2018-10-19T23:07:13.669Z,49.43
2018-10-19T23:09:42.979Z,52.53
2018-10-19T23:12:12.239Z,50.33
2018-10-19T23:14:41.542Z,47.70
2018-10-19T23:17:10.913Z,49.93
2018-10-19T23:19:40.205Z,49.53
2018-10-19T23:22:09.505Z,53.00
2018-10-19T23:24:38.854Z,51.73
2018-10-19T23:27:08.170Z,53.07
2018-10-19T23:29:37.594Z,51.97
2018-10-19T23:32:07.314Z,51.70
2018-10-19T23:34:36.678Z,54.50
2018-10-19T23:37:06.060Z,49.67
2018-10-19T23:39:35.394Z,48.57
2018-10-19T23:42:04.731Z,48.40
2018-10-19T23:44:34.040Z,47.33
2018-10-19T23:47:03.413Z,48.00
2018-10-19T23:49:32.701Z,47.47
2018-10-19T23:52:02.006Z,48.50
2018-10-19T23:54:31.357Z,47.47
2018-10-19T23:57:00.689Z,47.30
2018-10-19T23:59:30.985Z,48.90
